Accueil
METAR-TAF:

METAR-TAF

Aéroports :

Goeree Le, Pays-Bas

Plate-forme pétrolière

latitude: 51-55-33N, longitude: 3-40-12E, altitude: 19 m

Observation

Le bulletin a été fait il y a 21 minutes, à 03:25 UTC
Vent 14 kt de est/sud-est
Température 5°C
Humidité 75%
Pression 983 hPa
Visibilité 10 km ou plus

METAR: EHSC 110325Z AUTO 12014KT 9999 ///////// 05/01 Q0983 W09/H12

Heure: 04:46 (03:46 UTC)


TAF: absent

Observations et prévisions météorologiques de plus de 4000 aéroports (messages METAR et TAF).

Les stations disponibles sont représentées par des disques jaunes et rouges sur la carte.

Passer la souris dessus pour voir le nom de la station.

Cliquer dessus pour voir les observations et prévisions météorologiques.

Pour changer de carte: cliquez sur les boutons verts avec une croix noire pour zoomer, sur le bouton vert avec un tiret pour effectuer un zoom arrière, ou sur les flèches vertes pour les cartes adjacentes.


METAR-TAF: